createdAt,value
2022-12-19T00:01:31.258Z,-15.43
2022-12-19T00:04:01.898Z,-15.13
2022-12-19T00:06:35.865Z,-14.45
2022-12-19T00:09:05.356Z,-14.48
2022-12-19T00:11:35.094Z,-16.26
2022-12-19T00:14:04.418Z,-16.14
2022-12-19T00:16:35.211Z,-14.53
2022-12-19T00:19:04.654Z,-14.54
2022-12-19T00:21:35.628Z,-14.97
2022-12-19T00:24:05.215Z,-14.99
2022-12-19T00:26:41.780Z,-14.90
2022-12-19T00:29:14.389Z,-14.50
2022-12-19T00:31:45.587Z,-14.58
2022-12-19T00:34:14.963Z,-15.00
2022-12-19T00:36:44.407Z,-14.49
2022-12-19T00:39:13.657Z,-14.61
2022-12-19T00:41:43.822Z,-14.82
2022-12-19T00:44:14.754Z,-15.00
2022-12-19T00:46:52.702Z,-15.34
2022-12-19T00:49:22.548Z,-15.30
2022-12-19T00:51:51.909Z,-15.44
2022-12-19T00:54:21.167Z,-15.48
2022-12-19T00:56:50.772Z,-14.89
2022-12-19T00:59:23.941Z,-14.54
2022-12-19T01:01:57.558Z,-14.55
2022-12-19T01:04:28.579Z,-15.41
2022-12-19T01:07:02.127Z,-15.40
2022-12-19T01:09:32.986Z,-15.45
2022-12-19T01:12:19.430Z,-16.33
2022-12-19T01:14:50.323Z,-14.57
2022-12-19T01:17:21.068Z,-14.98
2022-12-19T01:19:50.440Z,-14.65
2022-12-19T01:22:19.742Z,-15.39
2022-12-19T01:24:48.939Z,-15.35
2022-12-19T01:27:18.450Z,-14.87
2022-12-19T01:29:52.247Z,-15.48
2022-12-19T01:32:23.988Z,-14.82
2022-12-19T01:34:53.269Z,-15.00
2022-12-19T01:37:22.808Z,-15.02
2022-12-19T01:39:52.091Z,-14.99
2022-12-19T01:42:24.254Z,-14.57
2022-12-19T01:45:33.838Z,-14.59
2022-12-19T01:48:16.684Z,-14.81
2022-12-19T01:51:01.302Z,-15.35
2022-12-19T01:53:32.350Z,-14.56
2022-12-19T01:56:08.486Z,-14.87
2022-12-19T01:58:40.240Z,-15.02
2022-12-19T02:01:09.562Z,-15.10
2022-12-19T02:03:41.179Z,-14.87
2022-12-19T02:06:11.470Z,-14.96
2022-12-19T02:08:42.963Z,-14.50
2022-12-19T02:11:12.219Z,-14.78
2022-12-19T02:13:41.947Z,-14.81
2022-12-19T02:16:23.126Z,-14.93
2022-12-19T02:19:06.915Z,-15.07
2022-12-19T02:21:47.158Z,-14.78
2022-12-19T02:24:53.590Z,-15.34
2022-12-19T02:28:04.643Z,-14.62
2022-12-19T02:30:55.725Z,-15.99
2022-12-19T02:33:32.452Z,-14.81
2022-12-19T02:36:08.853Z,-15.18
2022-12-19T02:38:46.084Z,-15.31
2022-12-19T02:41:20.750Z,-14.50
2022-12-19T02:43:53.204Z,-15.03
2022-12-19T02:46:30.546Z,-15.49
2022-12-19T02:49:00.794Z,-14.85
2022-12-19T02:51:30.126Z,-14.74
2022-12-19T02:53:59.773Z,-15.99
2022-12-19T02:56:42.178Z,-14.25
2022-12-19T02:59:23.544Z,-14.54
2022-12-19T03:01:59.558Z,-14.90
2022-12-19T03:04:42.202Z,-14.42
2022-12-19T03:07:18.174Z,-15.03
2022-12-19T03:09:54.440Z,-15.59
2022-12-19T03:12:30.951Z,-14.21
2022-12-19T03:15:01.958Z,-14.50
2022-12-19T03:17:37.418Z,-15.26
2022-12-19T03:20:11.973Z,-14.12
2022-12-19T03:22:41.331Z,-15.21
2022-12-19T03:25:11.197Z,-15.13
2022-12-19T03:27:42.166Z,-14.29
2022-12-19T03:30:14.391Z,-14.35
2022-12-19T03:32:48.266Z,-14.83
2022-12-19T03:35:22.534Z,-14.16
2022-12-19T03:37:53.873Z,-14.79
2022-12-19T03:40:26.714Z,-14.09
2022-12-19T03:43:12.721Z,-14.23
2022-12-19T03:45:59.455Z,-13.84
2022-12-19T03:48:35.455Z,-13.63
2022-12-19T03:51:14.711Z,-13.55
2022-12-19T03:53:52.254Z,-13.48
2022-12-19T03:56:28.161Z,-13.72
2022-12-19T03:59:03.978Z,-13.68
2022-12-19T04:01:36.399Z,-13.75
2022-12-19T04:04:15.375Z,-14.40
2022-12-19T04:06:45.899Z,-13.30
2022-12-19T04:09:22.156Z,-14.20
2022-12-19T04:11:55.946Z,-14.07
2022-12-19T04:14:30.517Z,-13.95
2022-12-19T04:17:08.956Z,-13.27
2022-12-19T04:19:45.920Z,-13.78
2022-12-19T04:22:23.127Z,-13.39
2022-12-19T04:24:54.506Z,-12.96
2022-12-19T04:27:24.679Z,-12.98
2022-12-19T04:29:57.701Z,-12.98
2022-12-19T04:32:28.932Z,-13.01
2022-12-19T04:35:03.788Z,-12.78
2022-12-19T04:37:33.591Z,-12.78
2022-12-19T04:40:02.894Z,-12.84
2022-12-19T04:42:32.072Z,-12.71
2022-12-19T04:45:01.338Z,-12.80
2022-12-19T04:47:30.466Z,-12.78
2022-12-19T04:50:00.998Z,-12.58
2022-12-19T04:52:30.095Z,-12.58
2022-12-19T04:54:59.386Z,-12.48
2022-12-19T04:57:34.118Z,-12.43
2022-12-19T05:00:07.787Z,-12.48
2022-12-19T05:02:37.223Z,-12.42
2022-12-19T05:05:08.414Z,-12.35
2022-12-19T05:07:37.688Z,-12.35
2022-12-19T05:10:08.214Z,-12.23
2022-12-19T05:12:37.475Z,-12.17
2022-12-19T05:15:09.712Z,-12.19
2022-12-19T05:17:41.464Z,-12.16
2022-12-19T05:20:13.367Z,-12.01
2022-12-19T05:22:43.409Z,-11.94
2022-12-19T05:25:12.676Z,-11.90
2022-12-19T05:27:41.871Z,-11.88
2022-12-19T05:30:11.974Z,-11.71
2022-12-19T05:32:41.126Z,-11.68
2022-12-19T05:35:12.002Z,-11.70
2022-12-19T05:37:41.186Z,-11.76
2022-12-19T05:40:11.406Z,-11.80
2022-12-19T05:42:40.505Z,-11.76
2022-12-19T05:45:10.790Z,-11.80
2022-12-19T05:47:40.003Z,-11.73
2022-12-19T05:50:11.910Z,-11.79
2022-12-19T05:52:41.284Z,-11.65
2022-12-19T05:55:11.386Z,-11.74
2022-12-19T05:57:40.487Z,-11.74
2022-12-19T06:00:11.126Z,-11.64
2022-12-19T06:02:40.857Z,-11.60
2022-12-19T06:05:11.881Z,-11.64
2022-12-19T06:07:41.009Z,-11.73
2022-12-19T06:10:10.483Z,-11.78
2022-12-19T06:12:39.608Z,-11.81
2022-12-19T06:15:09.818Z,-11.93
2022-12-19T06:17:38.948Z,-11.90
2022-12-19T06:20:09.249Z,-11.90
2022-12-19T06:22:39.924Z,-11.89
2022-12-19T06:25:09.946Z,-12.09
2022-12-19T06:27:39.251Z,-12.17
2022-12-19T06:30:09.578Z,-12.01
2022-12-19T06:32:38.760Z,-12.04
2022-12-19T06:35:09.060Z,-12.30
2022-12-19T06:37:39.763Z,-12.22
2022-12-19T06:40:30.706Z,-12.23
2022-12-19T06:42:58.729Z,-12.17
2022-12-19T06:45:27.849Z,-12.19
2022-12-19T06:47:58.282Z,-12.20
2022-12-19T06:50:28.989Z,-12.15
2022-12-19T06:53:00.456Z,-12.10
2022-12-19T06:55:30.205Z,-12.14
2022-12-19T06:57:59.322Z,-12.12
2022-12-19T07:00:28.706Z,-12.31
2022-12-19T07:02:59.703Z,-12.07
2022-12-19T07:05:33.053Z,-12.24
2022-12-19T07:08:04.060Z,-12.19
2022-12-19T07:10:33.829Z,-12.22
2022-12-19T07:13:03.095Z,-12.25
2022-12-19T07:15:33.921Z,-12.22
2022-12-19T07:18:04.195Z,-12.29
2022-12-19T07:20:37.909Z,-12.17
2022-12-19T07:23:16.318Z,-12.17
2022-12-19T07:25:45.613Z,-12.22
2022-12-19T07:28:15.241Z,-12.26
2022-12-19T07:30:44.581Z,-12.41
2022-12-19T07:33:18.284Z,-12.42
2022-12-19T07:35:50.433Z,-12.65
2022-12-19T07:38:23.309Z,-12.43
2022-12-19T07:40:52.379Z,-12.42
2022-12-19T07:43:21.489Z,-12.53
2022-12-19T07:45:56.698Z,-12.45
2022-12-19T07:48:28.097Z,-12.48
2022-12-19T07:50:57.179Z,-12.56
2022-12-19T07:53:29.571Z,-12.49
2022-12-19T07:55:58.802Z,-12.38
2022-12-19T07:58:28.073Z,-12.38
2022-12-19T08:00:58.267Z,-12.40
2022-12-19T08:03:27.488Z,-12.47
2022-12-19T08:06:02.043Z,-12.42
2022-12-19T08:08:33.221Z,-12.61
2022-12-19T08:11:09.420Z,-12.47
2022-12-19T08:13:43.288Z,-12.61
2022-12-19T08:16:15.899Z,-12.74
2022-12-19T08:18:45.325Z,-12.61
2022-12-19T08:21:14.914Z,-12.66
2022-12-19T08:23:46.414Z,-12.58
2022-12-19T08:26:17.375Z,-12.64
2022-12-19T08:28:49.006Z,-12.68
2022-12-19T08:31:19.978Z,-12.66
2022-12-19T08:33:49.973Z,-12.68
2022-12-19T08:36:20.228Z,-12.70
2022-12-19T08:38:51.619Z,-12.73
2022-12-19T08:41:21.114Z,-12.81
2022-12-19T08:43:51.911Z,-12.70
2022-12-19T08:46:21.632Z,-12.66
2022-12-19T08:48:51.507Z,-12.71
2022-12-19T08:51:21.378Z,-12.67
2022-12-19T08:53:53.737Z,-12.90
2022-12-19T08:56:24.196Z,-12.74
2022-12-19T08:58:54.124Z,-12.91
2022-12-19T09:01:24.348Z,-12.78
2022-12-19T09:05:36.895Z,-12.68
2022-12-19T09:06:43.439Z,-12.79
2022-12-19T09:09:14.044Z,-12.79
2022-12-19T09:11:46.640Z,-12.69
2022-12-19T09:14:20.905Z,-12.70
2022-12-19T09:16:53.308Z,-12.88
2022-12-19T09:19:22.435Z,-12.73
2022-12-19T09:21:51.707Z,-12.75
2022-12-19T09:24:22.373Z,-12.77
2022-12-19T09:26:51.495Z,-12.80
2022-12-19T09:29:21.951Z,-12.97
2022-12-19T09:31:56.115Z,-12.93
2022-12-19T09:34:37.564Z,-12.81
2022-12-19T09:37:09.036Z,-12.83
2022-12-19T09:39:46.938Z,-12.83
2022-12-19T09:42:50.303Z,-12.88
2022-12-19T09:45:35.771Z,-12.93
2022-12-19T09:48:05.905Z,-14.29
2022-12-19T09:50:51.133Z,-12.93
2022-12-19T09:53:26.484Z,-12.98
2022-12-19T09:56:00.200Z,-12.93
2022-12-19T09:58:41.175Z,-13.07
2022-12-19T10:01:20.153Z,-12.93
2022-12-19T10:03:55.683Z,-12.91
2022-12-19T10:07:11.736Z,-12.94
2022-12-19T10:11:16.780Z,-12.86
2022-12-19T10:12:45.911Z,-12.87
2022-12-19T10:15:30.398Z,-12.91
2022-12-19T10:18:14.840Z,-12.80
2022-12-19T10:20:52.450Z,-12.78
2022-12-19T10:23:58.501Z,-13.07
2022-12-19T10:26:36.041Z,-12.87
2022-12-19T10:29:21.387Z,-12.79
2022-12-19T10:31:56.827Z,-12.79
2022-12-19T10:34:41.010Z,-13.13
2022-12-19T10:37:28.908Z,-12.94
2022-12-19T10:40:10.448Z,-12.78
2022-12-19T10:42:52.866Z,-12.74
2022-12-19T10:45:25.834Z,-12.91
2022-12-19T10:47:59.234Z,-12.73
2022-12-19T10:50:31.107Z,-12.82
2022-12-19T10:53:10.870Z,-12.78
2022-12-19T10:55:50.835Z,-12.59
2022-12-19T10:58:24.451Z,-12.80
2022-12-19T11:01:12.049Z,-12.53
2022-12-19T11:03:43.452Z,-12.59
2022-12-19T11:07:01.196Z,-12.50
2022-12-19T11:09:32.813Z,-12.62
2022-12-19T11:15:24.873Z,-12.63
2022-12-19T11:21:17.822Z,-12.71
2022-12-19T11:24:26.532Z,-12.61
2022-12-19T11:29:34.344Z,-12.57
2022-12-19T11:29:34.919Z,-12.56
2022-12-19T11:30:45.722Z,-12.39
2022-12-19T11:32:43.737Z,-12.18
2022-12-19T11:35:22.755Z,-12.28
2022-12-19T11:37:57.898Z,-12.26
2022-12-19T11:40:35.457Z,-12.06
2022-12-19T11:46:09.112Z,-12.10
2022-12-19T11:48:42.995Z,-12.12
2022-12-19T11:51:22.951Z,-11.95
2022-12-19T11:54:00.212Z,-11.99
2022-12-19T11:56:31.436Z,-12.01
2022-12-19T11:59:09.581Z,-11.96
2022-12-19T12:01:45.990Z,-11.95
2022-12-19T12:04:40.801Z,-11.89
2022-12-19T12:07:58.671Z,-11.82
2022-12-19T12:15:42.139Z,-11.82
2022-12-19T12:24:23.213Z,-11.88
2022-12-19T12:27:11.796Z,-11.86
2022-12-19T12:31:07.691Z,-11.84
2022-12-19T12:31:39.620Z,-11.82
2022-12-19T12:31:39.809Z,-11.92
2022-12-19T12:31:56.211Z,-11.81
2022-12-19T12:35:34.264Z,-11.63
2022-12-19T12:40:53.457Z,-11.64
2022-12-19T12:43:36.173Z,-11.63
2022-12-19T12:46:07.151Z,-11.69
2022-12-19T12:48:40.314Z,-11.60
2022-12-19T12:51:10.925Z,-11.59
2022-12-19T12:53:45.903Z,-11.89
2022-12-19T12:56:18.377Z,-11.57
2022-12-19T12:59:22.789Z,-11.56
2022-12-19T13:01:55.409Z,-11.71
2022-12-19T13:04:30.648Z,-11.62
2022-12-19T13:07:31.455Z,-11.58
2022-12-19T13:10:27.059Z,-11.61
2022-12-19T13:13:01.610Z,-11.52
2022-12-19T13:15:38.001Z,-11.50
2022-12-19T13:18:29.238Z,-11.46
2022-12-19T13:20:58.918Z,-11.41
2022-12-19T13:23:48.658Z,-11.40
2022-12-19T13:26:50.172Z,-11.40
2022-12-19T13:29:51.741Z,-11.43
2022-12-19T13:32:21.323Z,-11.21
2022-12-19T13:35:01.708Z,-11.27
2022-12-19T13:39:48.930Z,-11.20
2022-12-19T13:40:59.491Z,-11.17
2022-12-19T13:43:48.248Z,-11.18
2022-12-19T13:46:29.258Z,-11.37
2022-12-19T13:49:04.563Z,-11.34
2022-12-19T13:51:44.819Z,-11.14
2022-12-19T13:54:33.408Z,-11.24
2022-12-19T13:57:09.094Z,-11.17
2022-12-19T13:59:59.260Z,-11.30
2022-12-19T14:02:34.884Z,-11.11
2022-12-19T14:05:36.097Z,-11.27
2022-12-19T14:08:21.288Z,-11.00
2022-12-19T14:11:32.239Z,-10.97
2022-12-19T14:14:12.638Z,-11.29
2022-12-19T14:16:46.442Z,-10.94
2022-12-19T14:19:23.955Z,-11.03
2022-12-19T14:22:04.925Z,-10.92
2022-12-19T14:24:41.486Z,-10.82
2022-12-19T14:28:17.253Z,-10.82
2022-12-19T14:30:28.326Z,-10.94
2022-12-19T14:33:46.640Z,-10.86
2022-12-19T14:36:06.196Z,-10.82
2022-12-19T14:39:23.276Z,-10.69
2022-12-19T14:42:01.295Z,-10.65
2022-12-19T14:52:51.880Z,-10.61
2022-12-19T14:53:52.025Z,-10.74
2022-12-19T14:54:25.811Z,-10.63
2022-12-19T14:54:40.343Z,-10.67
2022-12-19T14:59:04.417Z,-10.57
2022-12-19T15:01:37.146Z,-10.56
2022-12-19T15:04:50.766Z,-10.60
2022-12-19T15:07:12.335Z,-10.53
2022-12-19T15:10:58.022Z,-10.70
2022-12-19T15:14:57.368Z,-10.63
2022-12-19T15:16:00.840Z,-10.45
2022-12-19T15:18:41.076Z,-10.44
2022-12-19T15:21:12.972Z,-10.45
2022-12-19T15:23:45.932Z,-10.41
2022-12-19T15:26:17.504Z,-10.36
2022-12-19T15:28:51.435Z,-10.52
2022-12-19T15:31:30.431Z,-10.35
2022-12-19T15:34:33.147Z,-10.35
2022-12-19T15:36:48.878Z,-10.33
2022-12-19T15:39:20.290Z,-10.42
2022-12-19T15:41:52.761Z,-10.45
2022-12-19T15:44:26.675Z,-10.23
2022-12-19T15:46:56.635Z,-10.24
2022-12-19T15:49:25.908Z,-10.28
2022-12-19T15:51:55.200Z,-10.15
2022-12-19T15:57:24.561Z,-10.48
2022-12-19T15:59:54.412Z,-10.01
2022-12-19T16:02:27.938Z,-10.01
2022-12-19T16:05:07.343Z,-10.16
2022-12-19T16:07:36.537Z,-9.98
2022-12-19T16:10:08.646Z,-10.03
2022-12-19T16:12:40.909Z,-9.93
2022-12-19T16:15:17.356Z,-9.88
2022-12-19T16:17:46.615Z,-10.03
2022-12-19T16:20:20.445Z,-9.86
2022-12-19T16:22:51.014Z,-9.88
2022-12-19T16:25:22.916Z,-10.31
2022-12-19T16:27:56.852Z,-10.71
2022-12-19T16:30:29.920Z,-9.96
2022-12-19T16:32:59.749Z,-9.69
2022-12-19T16:38:20.931Z,-10.17
2022-12-19T16:40:53.793Z,-9.70
2022-12-19T16:43:31.150Z,-10.29
2022-12-19T16:46:02.083Z,-10.95
2022-12-19T16:48:32.249Z,-9.63
2022-12-19T16:51:01.826Z,-9.80
2022-12-19T16:53:31.631Z,-9.90
2022-12-19T16:56:02.879Z,-9.86
2022-12-19T16:58:34.489Z,-10.71
2022-12-19T17:01:06.207Z,-10.36
2022-12-19T17:03:41.372Z,-9.85
2022-12-19T17:06:13.223Z,-9.84
2022-12-19T17:08:42.646Z,-10.04
2022-12-19T17:11:18.160Z,-9.51
2022-12-19T17:13:49.929Z,-10.08
2022-12-19T17:16:19.398Z,-9.24
2022-12-19T17:18:49.380Z,-9.49
2022-12-19T17:21:20.043Z,-9.75
2022-12-19T17:23:50.194Z,-9.30
2022-12-19T17:26:21.655Z,-9.79
2022-12-19T17:28:51.064Z,-9.15
2022-12-19T17:31:24.962Z,-10.05
2022-12-19T17:33:57.007Z,-9.28
2022-12-19T17:36:36.521Z,-9.58
2022-12-19T17:39:19.551Z,-8.99
2022-12-19T17:41:51.121Z,-9.17
2022-12-19T17:44:20.922Z,-9.91
2022-12-19T17:46:51.164Z,-9.00
2022-12-19T17:49:28.701Z,-9.72
2022-12-19T17:51:58.922Z,-9.15
2022-12-19T17:54:30.837Z,-11.02
2022-12-19T17:57:01.750Z,-9.20
2022-12-19T17:59:31.188Z,-9.01
2022-12-19T18:02:00.718Z,-9.14
2022-12-19T18:04:32.232Z,-9.99
2022-12-19T18:07:01.891Z,-8.88
2022-12-19T18:09:31.176Z,-8.85
2022-12-19T18:12:01.935Z,-9.58
2022-12-19T18:14:31.245Z,-9.39
2022-12-19T18:17:02.001Z,-9.54
2022-12-19T18:19:33.753Z,-9.78
2022-12-19T18:22:03.064Z,-9.43
2022-12-19T18:24:32.424Z,-9.71
2022-12-19T18:27:03.193Z,-10.34
2022-12-19T18:29:32.493Z,-9.53
2022-12-19T18:32:01.817Z,-8.77
2022-12-19T18:34:33.301Z,-8.86
2022-12-19T18:37:03.150Z,-9.43
2022-12-19T18:39:34.102Z,-9.45
2022-12-19T18:42:21.502Z,-9.44
2022-12-19T18:44:50.871Z,-10.04
2022-12-19T18:47:24.334Z,-9.18
2022-12-19T18:49:54.459Z,-8.83
2022-12-19T18:52:23.708Z,-9.53
2022-12-19T18:54:53.044Z,-9.16
2022-12-19T18:57:23.800Z,-8.36
2022-12-19T18:59:53.157Z,-8.76
2022-12-19T19:02:28.583Z,-8.74
2022-12-19T19:04:58.077Z,-8.38
2022-12-19T19:07:27.328Z,-8.41
2022-12-19T19:09:56.623Z,-9.35
2022-12-19T19:12:27.385Z,-8.78
2022-12-19T19:14:56.606Z,-8.79
2022-12-19T19:17:31.005Z,-8.52
2022-12-19T19:20:00.548Z,-8.86
2022-12-19T19:22:30.109Z,-8.97
2022-12-19T19:25:00.127Z,-8.61
2022-12-19T19:27:30.935Z,-8.29
2022-12-19T19:30:00.978Z,-8.94
2022-12-19T19:32:30.366Z,-8.18
2022-12-19T19:34:59.675Z,-8.86
2022-12-19T19:37:30.190Z,-9.04
2022-12-19T19:39:59.493Z,-8.62
2022-12-19T19:42:30.277Z,-8.18
2022-12-19T19:44:59.601Z,-8.53
2022-12-19T19:47:31.739Z,-8.26
2022-12-19T19:50:01.092Z,-8.98
2022-12-19T19:52:30.407Z,-8.68
2022-12-19T19:54:59.725Z,-8.36
2022-12-19T19:57:30.573Z,-8.14
2022-12-19T19:59:59.808Z,-9.78
2022-12-19T20:02:29.445Z,-8.49
2022-12-19T20:04:58.742Z,-8.67
2022-12-19T20:07:28.541Z,-8.58
2022-12-19T20:09:58.563Z,-8.99
2022-12-19T20:12:27.908Z,-9.31
2022-12-19T20:14:58.791Z,-8.81
2022-12-19T20:17:28.184Z,-8.01
2022-12-19T20:19:57.468Z,-8.93
2022-12-19T20:22:26.724Z,-8.42
2022-12-19T20:24:55.997Z,-9.74
2022-12-19T20:27:25.304Z,-9.26
2022-12-19T20:29:54.591Z,-7.90
2022-12-19T20:32:25.504Z,-8.30
2022-12-19T20:34:54.891Z,-8.42
2022-12-19T20:37:24.211Z,-7.83
2022-12-19T20:39:53.838Z,-8.61
2022-12-19T20:42:23.093Z,-8.30
2022-12-19T20:44:52.475Z,-8.52
2022-12-19T20:47:21.728Z,-7.98
2022-12-19T20:49:52.537Z,-8.62
2022-12-19T20:52:21.813Z,-8.28
2022-12-19T20:54:51.106Z,-8.26
2022-12-19T20:57:20.348Z,-7.89
2022-12-19T20:59:49.643Z,-8.10
2022-12-19T21:02:19.054Z,-7.83
2022-12-19T21:04:48.442Z,-7.89
2022-12-19T21:07:19.285Z,-8.67
2022-12-19T21:09:50.612Z,-7.81
2022-12-19T21:12:19.872Z,-8.21
2022-12-19T21:14:49.149Z,-8.13
2022-12-19T21:17:18.419Z,-7.99
2022-12-19T21:19:47.694Z,-8.57
2022-12-19T21:22:19.674Z,-8.38
2022-12-19T21:24:49.042Z,-8.14
2022-12-19T21:27:18.314Z,-9.28
2022-12-19T21:29:47.609Z,-7.76
2022-12-19T21:32:18.998Z,-8.41
2022-12-19T21:34:48.631Z,-8.48
2022-12-19T21:37:19.454Z,-7.59
2022-12-19T21:39:48.721Z,-7.91
2022-12-19T21:42:17.914Z,-8.61
2022-12-19T21:44:47.239Z,-7.89
2022-12-19T21:47:17.058Z,-8.29
2022-12-19T21:49:46.437Z,-7.92
2022-12-19T21:52:15.641Z,-7.76
2022-12-19T21:54:46.356Z,-8.26
2022-12-19T21:57:15.729Z,-8.83
2022-12-19T21:59:45.194Z,-8.45
2022-12-19T22:02:14.671Z,-7.48
2022-12-19T22:04:44.068Z,-8.18
2022-12-19T22:07:13.323Z,-7.63
2022-12-19T22:09:43.062Z,-8.09
2022-12-19T22:12:14.911Z,-8.04
2022-12-19T22:14:45.269Z,-7.69
2022-12-19T22:17:14.633Z,-7.52
2022-12-19T22:19:43.906Z,-7.64
2022-12-19T22:22:13.243Z,-8.62
2022-12-19T22:24:42.613Z,-7.55
2022-12-19T22:27:13.370Z,-8.41
2022-12-19T22:29:42.649Z,-8.23
2022-12-19T22:32:11.791Z,-7.48
2022-12-19T22:34:41.083Z,-7.54
2022-12-19T22:37:10.353Z,-7.32
2022-12-19T22:39:39.828Z,-7.83
2022-12-19T22:42:09.143Z,-7.55
2022-12-19T22:44:40.118Z,-7.34
2022-12-19T22:47:09.426Z,-7.62
2022-12-19T22:49:38.725Z,-8.12
2022-12-19T22:52:07.987Z,-7.81
2022-12-19T22:54:37.228Z,-8.32
2022-12-19T22:57:06.521Z,-7.21
2022-12-19T22:59:35.915Z,-7.66
2022-12-19T23:02:07.028Z,-8.05
2022-12-19T23:04:37.908Z,-7.34
2022-12-19T23:07:07.237Z,-7.65
2022-12-19T23:09:36.581Z,-7.44
2022-12-19T23:12:06.096Z,-7.60
2022-12-19T23:14:35.313Z,-7.29
2022-12-19T23:17:06.154Z,-7.28
2022-12-19T23:19:35.425Z,-8.05
2022-12-19T23:22:04.765Z,-7.24
2022-12-19T23:24:34.311Z,-7.49
2022-12-19T23:27:03.738Z,-7.19
2022-12-19T23:29:32.978Z,-8.07
2022-12-19T23:32:02.263Z,-7.54
2022-12-19T23:34:33.014Z,-7.40
2022-12-19T23:37:11.273Z,-7.00
2022-12-19T23:39:41.262Z,-7.62
2022-12-19T23:42:10.537Z,-7.60
2022-12-19T23:44:39.753Z,-6.92
2022-12-19T23:47:09.027Z,-7.15
2022-12-19T23:49:40.245Z,-7.32
2022-12-19T23:52:09.595Z,-7.08
2022-12-19T23:54:39.002Z,-7.23
2022-12-19T23:57:08.461Z,-7.36
2022-12-19T23:59:38.011Z,-7.63
